createdAt,value
2023-01-22T00:01:27.651Z,99656.00
2023-01-22T00:03:55.173Z,99657.56
2023-01-22T00:06:23.684Z,99659.47
2023-01-22T00:08:51.053Z,99662.75
2023-01-22T00:11:19.025Z,99659.47
2023-01-22T00:13:46.410Z,99658.87
2023-01-22T00:16:14.498Z,99658.37
2023-01-22T00:18:42.111Z,99656.13
2023-01-22T00:21:09.425Z,99660.47
2023-01-22T00:23:36.696Z,99661.94
2023-01-22T00:26:05.064Z,99668.13
2023-01-22T00:28:32.388Z,99675.03
2023-01-22T00:31:00.299Z,99673.41
2023-01-22T00:33:28.055Z,99679.09
2023-01-22T00:35:55.755Z,99679.03
2023-01-22T00:38:22.955Z,99674.44
2023-01-22T00:40:50.394Z,99678.56
2023-01-22T00:43:17.602Z,99685.94
2023-01-22T00:45:44.770Z,99672.44
2023-01-22T00:48:12.245Z,99676.00
2023-01-22T00:50:39.596Z,99682.25
2023-01-22T00:53:06.810Z,99685.62
2023-01-22T00:55:34.342Z,99676.69
2023-01-22T00:58:01.486Z,99686.53
2023-01-22T01:00:28.841Z,99681.37
2023-01-22T01:03:15.172Z,99681.03
2023-01-22T01:05:42.990Z,99689.97
2023-01-22T01:08:10.475Z,99686.00
2023-01-22T01:10:39.318Z,99690.38
2023-01-22T01:13:06.519Z,99687.69
2023-01-22T01:15:34.817Z,99683.28
2023-01-22T01:18:02.069Z,99691.53
2023-01-22T01:20:29.326Z,99690.06
2023-01-22T01:22:56.938Z,99686.84
2023-01-22T01:25:24.090Z,99696.97
2023-01-22T01:27:51.293Z,99687.03
2023-01-22T01:30:19.074Z,99692.88
2023-01-22T01:32:46.443Z,99698.03
2023-01-22T01:35:13.619Z,99698.53
2023-01-22T01:37:41.075Z,99707.41
2023-01-22T01:40:10.400Z,99699.16
2023-01-22T01:42:39.328Z,99704.28
2023-01-22T01:45:25.516Z,99699.72
2023-01-22T01:48:12.916Z,99701.09
2023-01-22T01:50:40.765Z,99702.19
2023-01-22T01:53:07.969Z,99696.47
2023-01-22T01:55:35.315Z,99691.47
2023-01-22T01:58:04.019Z,99691.50
2023-01-22T02:00:31.570Z,99687.16
2023-01-22T02:02:59.083Z,99692.59
2023-01-22T02:05:26.309Z,99683.50
2023-01-22T02:07:53.661Z,99689.75
2023-01-22T02:10:21.084Z,99683.41
2023-01-22T02:12:48.303Z,99688.53
2023-01-22T02:15:15.460Z,99675.44
2023-01-22T02:17:42.908Z,99676.94
2023-01-22T02:20:10.491Z,99681.87
2023-01-22T02:22:38.016Z,99678.78
2023-01-22T02:25:05.707Z,99683.00
2023-01-22T02:27:32.892Z,99673.78
2023-01-22T02:30:00.125Z,99675.84
2023-01-22T02:32:28.930Z,99677.03
2023-01-22T02:34:56.572Z,99678.12
2023-01-22T02:37:23.772Z,99675.41
2023-01-22T02:39:52.999Z,99680.81
2023-01-22T02:42:20.306Z,99672.56
2023-01-22T02:44:47.510Z,99672.78
2023-01-22T02:47:14.993Z,99676.06
2023-01-22T02:49:42.186Z,99672.72
2023-01-22T02:52:09.401Z,99665.06
2023-01-22T02:54:37.013Z,99658.94
2023-01-22T02:57:04.268Z,99665.84
2023-01-22T02:59:31.480Z,99667.28
2023-01-22T03:01:59.052Z,99671.75
2023-01-22T03:04:27.289Z,99663.78
2023-01-22T03:06:54.538Z,99665.87
2023-01-22T03:09:22.807Z,99659.59
2023-01-22T03:11:51.066Z,99656.28
2023-01-22T03:14:38.742Z,99651.47
2023-01-22T03:17:25.534Z,99658.19
2023-01-22T03:20:11.432Z,99647.94
2023-01-22T03:22:38.880Z,99644.31
2023-01-22T03:25:06.302Z,99645.00
2023-01-22T03:27:33.665Z,99643.94
2023-01-22T03:30:01.136Z,99645.53
2023-01-22T03:32:31.825Z,99644.44
2023-01-22T03:34:59.352Z,99646.72
2023-01-22T03:37:27.764Z,99652.28
2023-01-22T03:39:57.372Z,99649.97
2023-01-22T03:42:25.453Z,99654.28
2023-01-22T03:44:52.979Z,99654.66
2023-01-22T03:47:20.366Z,99648.44
2023-01-22T03:49:47.499Z,99641.97
2023-01-22T03:52:15.057Z,99643.94
2023-01-22T03:54:42.271Z,99646.84
2023-01-22T03:57:09.973Z,99644.72
2023-01-22T03:59:37.748Z,99648.09
2023-01-22T04:02:04.937Z,99641.88
2023-01-22T04:04:35.069Z,99644.34
2023-01-22T04:07:02.676Z,99651.69
2023-01-22T04:09:29.931Z,99656.28
2023-01-22T04:11:57.735Z,99649.28
2023-01-22T04:14:26.338Z,99655.44
2023-01-22T04:16:54.207Z,99657.22
2023-01-22T04:19:22.745Z,99656.38
2023-01-22T04:21:50.461Z,99644.81
2023-01-22T04:24:19.852Z,99644.13
2023-01-22T04:26:48.147Z,99647.72
2023-01-22T04:29:15.948Z,99645.22
2023-01-22T04:31:43.894Z,99647.97
2023-01-22T04:34:11.900Z,99644.59
2023-01-22T04:36:39.486Z,99651.94
2023-01-22T04:39:06.686Z,99655.06
2023-01-22T04:41:34.220Z,99651.03
2023-01-22T04:44:01.411Z,99653.47
2023-01-22T04:46:29.003Z,99651.97
2023-01-22T04:48:56.460Z,99658.63
2023-01-22T04:51:23.760Z,99655.56
2023-01-22T04:53:51.121Z,99659.06
2023-01-22T04:56:18.729Z,99650.47
2023-01-22T04:58:46.232Z,99651.44
2023-01-22T05:01:14.056Z,99656.81
2023-01-22T05:03:41.853Z,99652.97
2023-01-22T05:06:09.653Z,99647.81
2023-01-22T05:08:37.005Z,99651.66
2023-01-22T05:11:04.549Z,99668.31
2023-01-22T05:13:31.999Z,99663.34
2023-01-22T05:15:59.235Z,99670.59
2023-01-22T05:18:26.776Z,99676.81
2023-01-22T05:20:53.968Z,99681.25
2023-01-22T05:23:21.692Z,99683.66
2023-01-22T05:25:49.255Z,99687.84
2023-01-22T05:28:16.810Z,99685.91
2023-01-22T05:30:47.827Z,99692.16
2023-01-22T05:33:15.819Z,99700.88
2023-01-22T05:35:43.073Z,99714.13
2023-01-22T05:38:11.247Z,99702.19
2023-01-22T05:40:38.916Z,99711.97
2023-01-22T05:43:06.107Z,99717.88
2023-01-22T05:45:33.569Z,99718.59
2023-01-22T05:48:02.066Z,99717.59
2023-01-22T05:50:30.355Z,99719.31
2023-01-22T05:53:01.393Z,99728.19
2023-01-22T05:55:28.976Z,99720.72
2023-01-22T05:57:56.404Z,99732.06
2023-01-22T06:00:24.066Z,99732.00
2023-01-22T06:02:59.020Z,99739.97
2023-01-22T06:05:26.600Z,99735.91
2023-01-22T06:07:55.612Z,99736.91
2023-01-22T06:10:24.171Z,99732.50
2023-01-22T06:12:51.377Z,99741.31
2023-01-22T06:15:19.312Z,99746.69
2023-01-22T06:17:47.754Z,99755.19
2023-01-22T06:20:15.154Z,99747.59
2023-01-22T06:22:42.734Z,99762.22
2023-01-22T06:25:10.624Z,99751.81
2023-01-22T06:27:40.172Z,99766.06
2023-01-22T06:30:07.999Z,99770.66
2023-01-22T06:32:35.159Z,99779.87
2023-01-22T06:35:02.629Z,99788.94
2023-01-22T06:37:30.148Z,99800.28
2023-01-22T06:39:57.422Z,99802.81
2023-01-22T06:42:25.323Z,99801.97
2023-01-22T06:44:52.778Z,99790.88
2023-01-22T06:47:20.167Z,99792.88
2023-01-22T06:49:47.501Z,99792.09
2023-01-22T06:52:15.172Z,99789.59
2023-01-22T06:54:42.416Z,99797.28
2023-01-22T06:57:09.927Z,99800.16
2023-01-22T06:59:37.924Z,99801.72
2023-01-22T07:02:05.103Z,99813.69
2023-01-22T07:04:32.329Z,99806.66
2023-01-22T07:06:59.822Z,99810.09
2023-01-22T07:09:27.094Z,99829.31
2023-01-22T07:11:54.284Z,99817.03
2023-01-22T07:14:36.203Z,99812.66
2023-01-22T07:17:03.873Z,99815.81
2023-01-22T07:19:31.317Z,99819.81
2023-01-22T07:21:58.548Z,99825.87
2023-01-22T07:24:25.724Z,99835.97
2023-01-22T07:26:53.188Z,99837.66
2023-01-22T07:29:20.541Z,99840.34
2023-01-22T07:31:49.737Z,99850.19
2023-01-22T07:34:17.419Z,99851.44
2023-01-22T07:36:46.310Z,99851.66
2023-01-22T07:39:13.828Z,99855.94
2023-01-22T07:41:41.682Z,99856.87
2023-01-22T07:44:10.956Z,99851.97
2023-01-22T07:46:39.146Z,99859.03
2023-01-22T07:49:06.834Z,99860.75
2023-01-22T07:51:34.065Z,99854.56
2023-01-22T07:54:01.227Z,99862.38
2023-01-22T07:56:28.734Z,99863.97
2023-01-22T07:58:55.925Z,99868.47
2023-01-22T08:01:23.198Z,99860.75
2023-01-22T08:03:50.653Z,99860.84
2023-01-22T08:06:18.292Z,99854.53
2023-01-22T08:08:45.550Z,99858.91
2023-01-22T08:11:13.008Z,99870.72
2023-01-22T08:13:40.329Z,99870.53
2023-01-22T08:16:09.330Z,99888.13
2023-01-22T08:18:36.989Z,99900.38
2023-01-22T08:21:04.296Z,99902.06
2023-01-22T08:23:31.567Z,99902.91
2023-01-22T08:26:04.328Z,99899.47
2023-01-22T08:28:31.657Z,99906.53
2023-01-22T08:30:59.553Z,99901.25
2023-01-22T08:33:26.796Z,99903.69
2023-01-22T08:35:54.030Z,99915.19
2023-01-22T08:38:21.535Z,99911.22
2023-01-22T08:40:49.845Z,99916.25
2023-01-22T08:43:17.091Z,99915.56
2023-01-22T08:45:45.025Z,99922.19
2023-01-22T08:48:12.170Z,99927.81
2023-01-22T08:50:39.345Z,99932.87
2023-01-22T08:53:06.884Z,99934.09
2023-01-22T08:55:34.223Z,99952.66
2023-01-22T08:58:01.397Z,99945.75
2023-01-22T09:00:29.139Z,99947.41
2023-01-22T09:02:56.956Z,99947.53
2023-01-22T09:05:24.164Z,99953.00
2023-01-22T09:07:51.819Z,99941.53
2023-01-22T09:10:21.529Z,99951.75
2023-01-22T09:12:49.142Z,99954.66
2023-01-22T09:15:16.660Z,99961.53
2023-01-22T09:17:43.972Z,99961.81
2023-01-22T09:20:11.133Z,99964.25
2023-01-22T09:22:38.678Z,99960.84
2023-01-22T09:25:06.400Z,99969.91
2023-01-22T09:27:33.571Z,99964.97
2023-01-22T09:30:01.038Z,99969.13
2023-01-22T09:32:28.281Z,99979.59
2023-01-22T09:34:55.479Z,99977.72
2023-01-22T09:37:22.964Z,99974.19
2023-01-22T09:39:50.492Z,99977.87
2023-01-22T09:42:20.825Z,99977.69
2023-01-22T09:44:48.951Z,99973.41
2023-01-22T09:47:17.783Z,99986.88
2023-01-22T09:49:52.687Z,99995.22
2023-01-22T09:52:20.197Z,99991.94
2023-01-22T09:54:49.490Z,99993.44
2023-01-22T09:57:30.678Z,99982.22
2023-01-22T10:00:00.319Z,99993.31
2023-01-22T10:02:31.139Z,99986.56
2023-01-22T10:05:05.429Z,99982.22
2023-01-22T10:07:35.127Z,99985.50
2023-01-22T10:10:09.839Z,99989.75
2023-01-22T10:12:37.014Z,99993.63
2023-01-22T10:15:04.715Z,99988.09
2023-01-22T10:17:32.705Z,99990.41
2023-01-22T10:20:01.017Z,99991.13
2023-01-22T10:22:28.477Z,99995.03
2023-01-22T10:24:55.851Z,99993.09
2023-01-22T10:27:25.329Z,99988.81
2023-01-22T10:30:08.297Z,99995.75
2023-01-22T10:32:35.511Z,100002.66
2023-01-22T10:35:05.779Z,100002.34
2023-01-22T10:37:42.914Z,100000.94
2023-01-22T10:40:46.072Z,100001.44
2023-01-22T10:43:14.277Z,100012.12
2023-01-22T10:45:55.488Z,99999.63
2023-01-22T10:48:22.846Z,100003.44
2023-01-22T10:51:19.912Z,100006.13
2023-01-22T10:53:48.025Z,100004.72
2023-01-22T10:56:24.946Z,100006.78
2023-01-22T10:58:52.197Z,100009.41
2023-01-22T11:01:27.827Z,100015.62
2023-01-22T11:03:55.132Z,100018.38
2023-01-22T11:06:24.684Z,100018.34
2023-01-22T11:08:53.792Z,100014.50
2023-01-22T11:11:23.935Z,100016.31
2023-01-22T11:14:04.923Z,100012.12
2023-01-22T11:16:32.795Z,100007.84
2023-01-22T11:19:02.422Z,100016.75
2023-01-22T11:21:30.829Z,100013.00
2023-01-22T11:24:05.160Z,100026.75
2023-01-22T11:27:02.143Z,100012.81
2023-01-22T11:29:47.855Z,100017.00
2023-01-22T11:32:34.104Z,100023.91
2023-01-22T11:35:01.278Z,100026.75
2023-01-22T11:37:41.881Z,100029.91
2023-01-22T11:40:12.063Z,100040.66
2023-01-22T11:42:48.436Z,100042.62
2023-01-22T11:45:21.820Z,100040.13
2023-01-22T11:48:01.595Z,100045.19
2023-01-22T11:50:47.821Z,100042.62
2023-01-22T11:53:18.016Z,100032.75
2023-01-22T11:56:01.156Z,100040.63
2023-01-22T11:58:28.620Z,100044.63
2023-01-22T12:01:08.885Z,100051.31
2023-01-22T12:03:45.939Z,100050.44
2023-01-22T12:06:13.376Z,100044.53
2023-01-22T12:08:52.996Z,100045.34
2023-01-22T12:11:39.152Z,100053.50
2023-01-22T12:14:10.721Z,100065.41
2023-01-22T12:16:43.775Z,100074.16
2023-01-22T12:19:15.553Z,100063.84
2023-01-22T12:21:48.841Z,100067.75
2023-01-22T12:24:22.584Z,100074.19
2023-01-22T12:27:22.521Z,100062.25
2023-01-22T12:29:52.994Z,100076.69
2023-01-22T12:32:23.021Z,100079.31
2023-01-22T12:34:52.556Z,100078.31
2023-01-22T12:37:21.856Z,100074.47
2023-01-22T12:39:49.717Z,100078.88
2023-01-22T12:42:26.067Z,100072.81
2023-01-22T12:45:05.183Z,100074.41
2023-01-22T12:47:36.735Z,100080.16
2023-01-22T12:50:04.902Z,100082.47
2023-01-22T12:52:32.589Z,100087.72
2023-01-22T12:55:00.090Z,100095.38
2023-01-22T12:57:40.100Z,100097.41
2023-01-22T13:00:26.419Z,100105.75
2023-01-22T13:02:53.633Z,100106.53
2023-01-22T13:05:27.156Z,100103.75
2023-01-22T13:08:08.148Z,100106.19
2023-01-22T13:10:36.305Z,100113.16
2023-01-22T13:13:03.443Z,100103.69
2023-01-22T13:15:32.484Z,100102.34
2023-01-22T13:18:08.069Z,100110.16
2023-01-22T13:20:36.721Z,100115.94
2023-01-22T13:23:05.398Z,100126.53
2023-01-22T13:25:33.102Z,100118.47
2023-01-22T13:28:00.577Z,100126.22
2023-01-22T13:30:28.626Z,100121.94
2023-01-22T13:33:12.217Z,100134.75
2023-01-22T13:35:43.849Z,100137.97
2023-01-22T13:38:18.426Z,100147.31
2023-01-22T13:40:51.435Z,100157.28
2023-01-22T13:43:19.575Z,100153.03
2023-01-22T13:45:47.013Z,100163.63
2023-01-22T13:48:15.902Z,100165.06
2023-01-22T13:50:45.511Z,100161.94
2023-01-22T13:53:22.844Z,100173.22
2023-01-22T13:55:50.406Z,100172.31
2023-01-22T13:58:47.112Z,100175.59
2023-01-22T14:01:28.330Z,100187.69
2023-01-22T14:04:18.597Z,100195.59
2023-01-22T14:06:47.374Z,100187.16
2023-01-22T14:09:24.988Z,100190.81
2023-01-22T14:11:52.367Z,100189.47
2023-01-22T14:14:19.898Z,100181.62
2023-01-22T14:16:47.399Z,100193.56
2023-01-22T14:19:14.775Z,100195.03
2023-01-22T14:21:42.642Z,100206.22
2023-01-22T14:24:10.094Z,100216.94
2023-01-22T14:26:37.315Z,100213.78
2023-01-22T14:29:05.009Z,100208.41
2023-01-22T14:31:32.365Z,100213.44
2023-01-22T14:33:59.704Z,100213.03
2023-01-22T14:36:27.253Z,100207.03
2023-01-22T14:38:55.403Z,100215.34
2023-01-22T14:41:22.719Z,100212.69
2023-01-22T14:43:50.250Z,100217.88
2023-01-22T14:46:17.691Z,100221.06
2023-01-22T14:48:45.142Z,100231.06
2023-01-22T14:51:12.939Z,100232.28
2023-01-22T14:53:40.308Z,100233.31
2023-01-22T14:56:07.771Z,100230.72
2023-01-22T14:58:36.322Z,100234.97
2023-01-22T15:01:13.730Z,100241.13
2023-01-22T15:03:41.481Z,100248.91
2023-01-22T15:06:08.822Z,100255.69
2023-01-22T15:08:36.328Z,100256.44
2023-01-22T15:11:05.661Z,100253.50
2023-01-22T15:13:33.359Z,100260.03
2023-01-22T15:16:04.569Z,100263.16
2023-01-22T15:18:32.084Z,100265.75
2023-01-22T15:20:59.412Z,100267.81
2023-01-22T15:23:26.810Z,100270.78
2023-01-22T15:26:01.257Z,100270.13
2023-01-22T15:28:28.624Z,100267.91
2023-01-22T15:30:59.184Z,100271.34
2023-01-22T15:33:26.668Z,100276.91
2023-01-22T15:35:54.019Z,100278.94
2023-01-22T15:38:21.662Z,100284.19
2023-01-22T15:40:48.927Z,100287.00
2023-01-22T15:43:16.213Z,100282.28
2023-01-22T15:45:43.690Z,100281.50
2023-01-22T15:48:13.611Z,100291.16
2023-01-22T15:50:40.829Z,100291.47
2023-01-22T15:53:08.374Z,100291.16
2023-01-22T15:55:35.733Z,100304.87
2023-01-22T15:58:03.085Z,100305.44
2023-01-22T16:00:31.483Z,100299.88
2023-01-22T16:02:59.117Z,100299.88
2023-01-22T16:05:26.403Z,100297.19
2023-01-22T16:07:53.788Z,100300.19
2023-01-22T16:10:21.464Z,100297.25
2023-01-22T16:12:49.032Z,100302.88
2023-01-22T16:15:16.560Z,100297.81
2023-01-22T16:17:44.153Z,100296.50
2023-01-22T16:20:11.528Z,100300.50
2023-01-22T16:22:38.834Z,100295.25
2023-01-22T16:25:06.488Z,100299.00
2023-01-22T16:27:33.855Z,100300.81
2023-01-22T16:30:01.331Z,100308.44
2023-01-22T16:32:28.950Z,100318.72
2023-01-22T16:34:56.419Z,100329.00
2023-01-22T16:37:23.823Z,100326.44
2023-01-22T16:39:51.448Z,100329.91
2023-01-22T16:42:18.878Z,100331.19
2023-01-22T16:44:47.380Z,100333.41
2023-01-22T16:47:14.879Z,100336.19
2023-01-22T16:49:42.807Z,100336.72
2023-01-22T16:52:21.990Z,100339.63
2023-01-22T16:54:50.614Z,100342.19
2023-01-22T16:57:20.122Z,100347.12
2023-01-22T16:59:47.548Z,100348.44
2023-01-22T17:02:15.712Z,100358.66
2023-01-22T17:04:43.309Z,100347.34
2023-01-22T17:07:17.776Z,100345.94
2023-01-22T17:09:55.336Z,100354.66
2023-01-22T17:12:23.101Z,100357.72
2023-01-22T17:14:52.685Z,100360.22
2023-01-22T17:17:20.383Z,100356.47
2023-01-22T17:19:47.557Z,100362.72
2023-01-22T17:22:14.919Z,100372.03
2023-01-22T17:24:42.562Z,100363.34
2023-01-22T17:27:12.057Z,100365.69
2023-01-22T17:29:39.602Z,100364.78
2023-01-22T17:32:07.667Z,100360.28
2023-01-22T17:34:37.370Z,100364.78
2023-01-22T17:37:09.528Z,100370.88
2023-01-22T17:39:37.984Z,100379.53
2023-01-22T17:42:06.080Z,100391.81
2023-01-22T17:44:34.948Z,100394.78
2023-01-22T17:47:03.524Z,100392.94
2023-01-22T17:49:32.558Z,100399.97
2023-01-22T17:51:59.895Z,100399.09
2023-01-22T17:54:27.447Z,100408.97
2023-01-22T17:56:54.932Z,100407.28
2023-01-22T17:59:23.152Z,100413.91
2023-01-22T18:01:51.355Z,100410.97
2023-01-22T18:04:19.202Z,100415.91
2023-01-22T18:06:46.955Z,100407.94
2023-01-22T18:09:14.451Z,100399.91
2023-01-22T18:11:42.668Z,100405.47
2023-01-22T18:14:11.835Z,100397.88
2023-01-22T18:16:40.865Z,100399.09
2023-01-22T18:19:08.727Z,100408.66
2023-01-22T18:21:36.652Z,100399.97
2023-01-22T18:24:04.735Z,100402.75
2023-01-22T18:26:32.497Z,100401.88
2023-01-22T18:28:59.891Z,100414.88
2023-01-22T18:31:28.307Z,100415.19
2023-01-22T18:33:57.130Z,100410.47
2023-01-22T18:36:25.257Z,100410.06
2023-01-22T18:38:52.780Z,100403.72
2023-01-22T18:41:24.092Z,100417.84
2023-01-22T18:43:53.708Z,100413.75
2023-01-22T18:46:22.147Z,100409.03
2023-01-22T18:48:52.399Z,100411.94
2023-01-22T18:51:19.866Z,100415.28
2023-01-22T18:53:47.297Z,100414.41
2023-01-22T18:56:14.649Z,100417.84
2023-01-22T18:58:44.680Z,100429.84
2023-01-22T19:01:13.750Z,100423.63
2023-01-22T19:03:42.188Z,100408.50
2023-01-22T19:06:16.395Z,100405.53
2023-01-22T19:08:48.265Z,100405.72
2023-01-22T19:11:15.984Z,100385.97
2023-01-22T19:13:44.947Z,100366.13
2023-01-22T19:16:14.396Z,100363.78
2023-01-22T19:18:42.887Z,100366.06
2023-01-22T19:21:12.367Z,100376.59
2023-01-22T19:23:41.093Z,100391.56
2023-01-22T19:26:10.843Z,100410.34
2023-01-22T19:28:38.524Z,100419.13
2023-01-22T19:31:14.181Z,100429.19
2023-01-22T19:33:43.016Z,100435.12
2023-01-22T19:36:11.247Z,100436.06
2023-01-22T19:38:38.796Z,100442.94
2023-01-22T19:41:06.436Z,100447.53
2023-01-22T19:43:33.865Z,100447.50
2023-01-22T19:46:02.514Z,100449.12
2023-01-22T19:48:30.472Z,100448.59
2023-01-22T19:50:58.922Z,100453.00
2023-01-22T19:53:26.467Z,100456.41
2023-01-22T19:55:54.236Z,100452.66
2023-01-22T19:58:21.552Z,100448.84
2023-01-22T20:00:48.917Z,100452.56
2023-01-22T20:03:16.573Z,100449.84
2023-01-22T20:05:44.377Z,100453.78
2023-01-22T20:08:11.975Z,100465.19
2023-01-22T20:10:39.886Z,100461.25
2023-01-22T20:13:07.573Z,100462.50
2023-01-22T20:15:41.341Z,100449.28
2023-01-22T20:18:09.680Z,100457.56
2023-01-22T20:20:37.076Z,100452.03
2023-01-22T20:23:04.493Z,100456.47
2023-01-22T20:25:32.252Z,100446.81
2023-01-22T20:27:59.949Z,100462.22
2023-01-22T20:30:27.446Z,100458.97
2023-01-22T20:32:56.652Z,100457.34
2023-01-22T20:35:24.016Z,100457.72
2023-01-22T20:37:51.410Z,100462.91
2023-01-22T20:40:19.151Z,100464.59
2023-01-22T20:42:46.524Z,100464.09
2023-01-22T20:45:14.033Z,100458.91
2023-01-22T20:47:41.832Z,100467.63
2023-01-22T20:50:09.539Z,100465.50
2023-01-22T20:52:37.004Z,100464.59
2023-01-22T20:55:04.980Z,100458.63
2023-01-22T20:57:32.336Z,100449.75
2023-01-22T20:59:59.725Z,100469.66
2023-01-22T21:02:27.275Z,100467.91
2023-01-22T21:04:56.535Z,100472.19
2023-01-22T21:07:24.020Z,100483.63
2023-01-22T21:09:51.691Z,100478.16
2023-01-22T21:12:19.201Z,100479.53
2023-01-22T21:14:46.733Z,100476.69
2023-01-22T21:17:14.343Z,100477.87
2023-01-22T21:19:44.165Z,100474.78
2023-01-22T21:22:11.687Z,100479.50
2023-01-22T21:24:39.194Z,100468.22
2023-01-22T21:27:06.428Z,100471.59
2023-01-22T21:29:33.759Z,100470.38
2023-01-22T21:32:01.311Z,100478.94
2023-01-22T21:34:30.065Z,100476.00
2023-01-22T21:36:59.522Z,100469.62
2023-01-22T21:39:30.664Z,100472.00
2023-01-22T21:42:16.779Z,100469.88
2023-01-22T21:45:03.087Z,100468.81
2023-01-22T21:47:31.274Z,100470.72
2023-01-22T21:49:58.816Z,100479.78
2023-01-22T21:52:26.521Z,100475.16
2023-01-22T21:54:53.688Z,100466.44
2023-01-22T21:57:21.216Z,100469.88
2023-01-22T21:59:48.494Z,100481.69
2023-01-22T22:02:17.446Z,100481.72
2023-01-22T22:04:45.172Z,100487.91
2023-01-22T22:07:12.902Z,100481.13
2023-01-22T22:09:40.151Z,100490.19
2023-01-22T22:12:07.705Z,100485.75
2023-01-22T22:14:34.909Z,100486.78
2023-01-22T22:17:02.194Z,100486.50
2023-01-22T22:19:29.719Z,100479.31
2023-01-22T22:21:56.925Z,100478.13
2023-01-22T22:24:24.078Z,100477.41
2023-01-22T22:26:51.532Z,100479.00
2023-01-22T22:29:18.772Z,100486.66
2023-01-22T22:31:46.043Z,100485.13
2023-01-22T22:34:13.599Z,100475.59
2023-01-22T22:36:40.779Z,100478.38
2023-01-22T22:39:07.973Z,100473.00
2023-01-22T22:41:39.288Z,100473.47
2023-01-22T22:44:06.527Z,100470.84
2023-01-22T22:46:35.604Z,100461.84
2023-01-22T22:49:03.324Z,100466.72
2023-01-22T22:51:32.120Z,100454.31
2023-01-22T22:54:00.707Z,100453.84
2023-01-22T22:56:28.653Z,100450.50
2023-01-22T22:58:55.924Z,100454.19
2023-01-22T23:01:23.980Z,100453.13
2023-01-22T23:03:51.881Z,100448.41
2023-01-22T23:06:20.503Z,100455.31
2023-01-22T23:08:52.097Z,100453.22
2023-01-22T23:11:20.867Z,100458.56
2023-01-22T23:13:51.376Z,100459.50
2023-01-22T23:16:19.399Z,100464.91
2023-01-22T23:18:49.484Z,100464.03
2023-01-22T23:21:20.943Z,100464.44
2023-01-22T23:23:48.641Z,100470.31
2023-01-22T23:26:17.735Z,100475.78
2023-01-22T23:28:45.077Z,100486.53
2023-01-22T23:31:13.711Z,100485.13
2023-01-22T23:33:40.996Z,100484.19
2023-01-22T23:36:09.593Z,100474.44
2023-01-22T23:38:37.148Z,100471.94
2023-01-22T23:41:05.425Z,100471.84
2023-01-22T23:43:33.051Z,100478.06
2023-01-22T23:46:00.813Z,100478.69
2023-01-22T23:48:28.151Z,100478.88
2023-01-22T23:50:55.458Z,100474.03
2023-01-22T23:53:22.962Z,100474.78
2023-01-22T23:55:50.112Z,100470.50
2023-01-22T23:58:17.255Z,100469.72
